Observation data for Anton on 02/16/2017      Previous  Date  Next       Current Mesonet Observations  Soil Data  Daily Summary Page  Observations in Plain Language
KAOS 160600Z 22009KT 01/M01 A3012 RMK A01 T00131010  RH  086%=      5-min Rain = 0
KAOS 160605Z 22009KT 01/M01 A3012 RMK A01 T00131010  RH  085%=      5-min Rain = 0
KAOS 160610Z 23008KT 01/M01 A3012 RMK A01 T00131011  RH  085%=      5-min Rain = 0
KAOS 160615Z 23009KT 01/M01 A3012 RMK A01 T00141011  RH  084%=      5-min Rain = 0
KAOS 160620Z 23009KT 01/M01 A3012 RMK A01 T00131013  RH  084%=      5-min Rain = 0
KAOS 160625Z 23008KT 01/M01 A3012 RMK A01 T00121013  RH  084%=      5-min Rain = 0
KAOS 160630Z 22008KT 01/M01 A3011 RMK A01 T00101014  RH  084%=      5-min Rain = 0
KAOS 160635Z 22007KT 01/M02 A3011 RMK A01 T00081015  RH  086%=      5-min Rain = 0
KAOS 160640Z 22007KT 01/M02 A3011 RMK A01 T00061015  RH  086%=      5-min Rain = 0
KAOS 160645Z 23006KT 01/M02 A3011 RMK A01 T00051016  RH  087%=      5-min Rain = 0
KAOS 160650Z 22004KT 01/M02 A3011 RMK A01 T00051016  RH  087%=      5-min Rain = 0
KAOS 160655Z 20001KT 00/M02 A3011 RMK A01 T00021018  RH  087%=      5-min Rain = 0
KAOS 160700Z 20001KT 00/M02 A3011 RMK A01 T00011017  RH  088%=      5-min Rain = 0
KAOS 160705Z 21002KT 00/M02 A3011 RMK A01 T00021016  RH  088%=      5-min Rain = 0
KAOS 160710Z 22003KT 01/M02 A3011 RMK A01 T00051016  RH  087%=      5-min Rain = 0
KAOS 160715Z 23002KT 01/M02 A301 RMK A01 T00071016  RH  085%=      5-min Rain = 0
KAOS 160720Z 24001KT 01/M02 A301 RMK A01 T00081017  RH  084%=      5-min Rain = 0
KAOS 160725Z 22002KT 01/M02 A301 RMK A01 T00071018  RH  084%=      5-min Rain = 0
KAOS 160730Z 22003KT 01/M02 A301 RMK A01 T00091018  RH  083%=      5-min Rain = 0
KAOS 160735Z 23003KT 01/M02 A301 RMK A01 T00091019  RH  082%=      5-min Rain = 0
KAOS 160740Z 23004KT 01/M02 A301 RMK A01 T00081020  RH  082%=      5-min Rain = 0
KAOS 160745Z 24003KT 00/M02 A301 RMK A01 T00041021  RH  084%=      5-min Rain = 0
KAOS 160750Z 24003KT 00/M02 A301 RMK A01 T00031021  RH  085%=      5-min Rain = 0
KAOS 160755Z 25003KT 00/M02 A301 RMK A01 T00021020  RH  086%=      5-min Rain = 0
KAOS 160800Z 24003KT 00/M02 A301 RMK A01 T00021020  RH  086%=      5-min Rain = 0
KAOS 160805Z 23002KT 00/02 A301 RMK A01 T00000-20  RH  087%=      5-min Rain = 0
KAOS 160810Z 25002KT M00/M02 A301 RMK A01 T10011020  RH  088%=      5-min Rain = 0
KAOS 160815Z 24002KT M00/M02 A301 RMK A01 T10011020  RH  088%=      5-min Rain = 0
KAOS 160820Z 25002KT M00/M02 A301 RMK A01 T10021020  RH  088%=      5-min Rain = 0
KAOS 160825Z 25003KT M00/M02 A301 RMK A01 T10021020  RH  089%=      5-min Rain = 0
KAOS 160830Z 25003KT M00/M02 A301 RMK A01 T10021020  RH  089%=      5-min Rain = 0
KAOS 160835Z 26003KT M00/M02 A3009 RMK A01 T10031021  RH  089%=      5-min Rain = 0
KAOS 160840Z 26004KT M00/M02 A3009 RMK A01 T10041022  RH  089%=      5-min Rain = 0
KAOS 160845Z 26004KT M01/M02 A3009 RMK A01 T10051023  RH  089%=      5-min Rain = 0
KAOS 160850Z 26004KT M01/M02 A3009 RMK A01 T10071024  RH  089%=      5-min Rain = 0
KAOS 160855Z 26004KT M01/M03 A3009 RMK A01 T10091025  RH  090%=      5-min Rain = 0
KAOS 160900Z 26004KT M01/M03 A3009 RMK A01 T10111025  RH  090%=      5-min Rain = 0
KAOS 160905Z 26004KT M01/M02 A3009 RMK A01 T10101024  RH  091%=      5-min Rain = 0
KAOS 160910Z 25004KT M01/M02 A3009 RMK A01 T10081021  RH  092%=      5-min Rain = 0
KAOS 160915Z 25005KT M01/M02 A3009 RMK A01 T10061020  RH  091%=      5-min Rain = 0
KAOS 160920Z 25005KT M00/M02 A3008 RMK A01 T10041019  RH  091%=      5-min Rain = 0
KAOS 160925Z 26005KT M00/M02 A3008 RMK A01 T10041020  RH  090%=      5-min Rain = 0
KAOS 160930Z 25005KT M01/M02 A3008 RMK A01 T10051021  RH  090%=      5-min Rain = 0
KAOS 160935Z 26004KT M01/M02 A3008 RMK A01 T10061021  RH  090%=      5-min Rain = 0
KAOS 160940Z 26004KT M01/M02 A3008 RMK A01 T10071022  RH  090%=      5-min Rain = 0
KAOS 160945Z 26004KT M01/M02 A3008 RMK A01 T10081024  RH  090%=      5-min Rain = 0
KAOS 160950Z 27004KT M01/M03 A3008 RMK A01 T10111025  RH  090%=      5-min Rain = 0
KAOS 160955Z 26004KT M01/M03 A3008 RMK A01 T10131026  RH  091%=      5-min Rain = 0
KAOS 161000Z 25004KT M01/M03 A3008 RMK A01 T10141027  RH  092%=      5-min Rain = 0
KAOS 161005Z 24004KT M02/M03 A3007 RMK A01 T10151027  RH  092%=      5-min Rain = 0
KAOS 161010Z 24005KT M01/M03 A3007 RMK A01 T10141025  RH  093%=      5-min Rain = 0
KAOS 161015Z 24006KT M01/M02 A3007 RMK A01 T10091020  RH  093%=      5-min Rain = 0
KAOS 161020Z 25005KT M01/M02 A3007 RMK A01 T10061019  RH  091%=      5-min Rain = 0
KAOS 161025Z 25005KT M00/M02 A3007 RMK A01 T10041020  RH  090%=      5-min Rain = 0
KAOS 161030Z 25004KT M00/M02 A3007 RMK A01 T10041021  RH  089%=      5-min Rain = 0
KAOS 161035Z 25005KT M00/M02 A3007 RMK A01 T10041022  RH  089%=      5-min Rain = 0
KAOS 161040Z 26005KT M00/M02 A3007 RMK A01 T10041022  RH  088%=      5-min Rain = 0
KAOS 161045Z 26005KT M00/M02 A3006 RMK A01 T10031022  RH  087%=      5-min Rain = 0
KAOS 161050Z 26005KT M00/M02 A3006 RMK A01 T10031024  RH  087%=      5-min Rain = 0
KAOS 161055Z 26006KT M00/M02 A3006 RMK A01 T10041024  RH  087%=      5-min Rain = 0
KAOS 161100Z 26006KT M01/M03 A3006 RMK A01 T10051025  RH  088%=      5-min Rain = 0
KAOS 161105Z 26006KT M01/M03 A3006 RMK A01 T10061025  RH  088%=      5-min Rain = 0
KAOS 161110Z 27006KT M01/M03 A3006 RMK A01 T10081026  RH  088%=      5-min Rain = 0
KAOS 161115Z 26006KT M01/M03 A3006 RMK A01 T10081026  RH  088%=      5-min Rain = 0
KAOS 161120Z 26007KT M01/M03 A3006 RMK A01 T10081026  RH  088%=      5-min Rain = 0
KAOS 161125Z 25007KT M01/M03 A3006 RMK A01 T10071026  RH  088%=      5-min Rain = 0
KAOS 161130Z 25005KT M01/M03 A3006 RMK A01 T10071026  RH  088%=      5-min Rain = 0
KAOS 161135Z 25003KT M01/M03 A3006 RMK A01 T10101029  RH  088%=      5-min Rain = 0
KAOS 161140Z 25002KT M01/M03 A3006 RMK A01 T10131031  RH  088%=      5-min Rain = 0
KAOS 161145Z 27002KT M01/M03 A3006 RMK A01 T10141030  RH  089%=      5-min Rain = 0
KAOS 161150Z 28002KT M01/M03 A3006 RMK A01 T10131029  RH  090%=      5-min Rain = 0
KAOS 161155Z 26003KT M02/M03 A3006 RMK A01 T10151030  RH  090%=      5-min Rain = 0
KAOS 161200Z 24003KT M01/M03 A3006 RMK A01 T10141030  RH  090%=      5-min Rain = 0
KAOS 161205Z 23002KT M02/M03 A3006 RMK A01 T10151031  RH  090%=      5-min Rain = 0
KAOS 161210Z 23002KT M02/M03 A3005 RMK A01 T10161031  RH  090%=      5-min Rain = 0
KAOS 161215Z 24002KT M02/M03 A3005 RMK A01 T10171031  RH  091%=      5-min Rain = 0
KAOS 161220Z 23001KT M02/M03 A3005 RMK A01 T10181032  RH  091%=      5-min Rain = 0
KAOS 161225Z 24001KT M02/M03 A3005 RMK A01 T10171030  RH  091%=      5-min Rain = 0
KAOS 161230Z 25002KT M02/M03 A3005 RMK A01 T10171030  RH  091%=      5-min Rain = 0
KAOS 161235Z 26003KT M02/M03 A3005 RMK A01 T10161029  RH  092%=      5-min Rain = 0
KAOS 161240Z 25003KT M02/M03 A3005 RMK A01 T10151028  RH  092%=      5-min Rain = 0
KAOS 161245Z 26002KT M01/M03 A3005 RMK A01 T10131028  RH  090%=      5-min Rain = 0
KAOS 161250Z 28003KT M01/M03 A3005 RMK A01 T10141030  RH  089%=      5-min Rain = 0
KAOS 161255Z 31003KT M01/M03 A3004 RMK A01 T10141031  RH  089%=      5-min Rain = 0
KAOS 161300Z 30004KT M02/M03 A3004 RMK A01 T10171033  RH  090%=      5-min Rain = 0
KAOS 161305Z 30003KT M02/M03 A3005 RMK A01 T10171031  RH  090%=      5-min Rain = 0
KAOS 161310Z 32004KT M02/M03 A3005 RMK A01 T10171031  RH  090%=      5-min Rain = 0
KAOS 161315Z 29006KT M02/M03 A3005 RMK A01 T10161030  RH  091%=      5-min Rain = 0
KAOS 161320Z 28005KT M02/M03 A3005 RMK A01 T10171032  RH  091%=      5-min Rain = 0
KAOS 161325Z 29003KT M02/M03 A3005 RMK A01 T10191033  RH  091%=      5-min Rain = 0
KAOS 161330Z 26002KT M02/M04 A3005 RMK A01 T10231036  RH  091%=      5-min Rain = 0
KAOS 161335Z 23001KT M03/M04 A3005 RMK A01 T10251037  RH  092%=      5-min Rain = 0
KAOS 161340Z 24002KT M02/M03 A3005 RMK A01 T10241034  RH  093%=      5-min Rain = 0
KAOS 161345Z 24003KT M02/M03 A3004 RMK A01 T10201030  RH  094%=      5-min Rain = 0
KAOS 161350Z 24004KT M02/M03 A3004 RMK A01 T10151025  RH  093%=      5-min Rain = 0
KAOS 161355Z 24004KT M01/M02 A3004 RMK A01 T10101024  RH  091%=      5-min Rain = 0
KAOS 161400Z 26003KT M01/M03 A3004 RMK A01 T10081025  RH  089%=      5-min Rain = 0
KAOS 161405Z 27004KT M01/M02 A3004 RMK A01 T10061024  RH  088%=      5-min Rain = 0
KAOS 161410Z 25004KT M00/M02 A3004 RMK A01 T10021021  RH  088%=      5-min Rain = 0
KAOS 161415Z 23004KT 00/M02 A3004 RMK A01 T00021019  RH  087%=      5-min Rain = 0
KAOS 161420Z 23005KT 01/M02 A3004 RMK A01 T00051016  RH  086%=      5-min Rain = 0
KAOS 161425Z 23005KT 01/M01 A3004 RMK A01 T00101013  RH  085%=      5-min Rain = 0
KAOS 161430Z 23005KT 01/M01 A3004 RMK A01 T00141012  RH  084%=      5-min Rain = 0
KAOS 161435Z 23005KT 02/M01 A3004 RMK A01 T00161010  RH  084%=      5-min Rain = 0
KAOS 161440Z 23005KT 02/M01 A3004 RMK A01 T00201008  RH  083%=      5-min Rain = 0
KAOS 161445Z 22007KT 03/M01 A3004 RMK A01 T00251006  RH  081%=      5-min Rain = 0
KAOS 161450Z 22008KT 03/M00 A3005 RMK A01 T00301004  RH  079%=      5-min Rain = 0
KAOS 161455Z 22007KT 03/M00 A3004 RMK A01 T00341001  RH  079%=      5-min Rain = 0
KAOS 161500Z 22008KT 04/00 A3004 RMK A01 T00370002  RH  079%=      5-min Rain = 0
KAOS 161505Z 22009KT 04/00 A3004 RMK A01 T00410002  RH  077%=      5-min Rain = 0
KAOS 161510Z 23009KT 04/00 A3004 RMK A01 T00440003  RH  076%=      5-min Rain = 0
KAOS 161515Z 23009KT 05/01 A3004 RMK A01 T00470005  RH  075%=      5-min Rain = 0
KAOS 161520Z 23009KT 05/01 A3004 RMK A01 T00510007  RH  074%=      5-min Rain = 0
KAOS 161525Z 23009KT 06/01 A3004 RMK A01 T00550005  RH  071%=      5-min Rain = 0
KAOS 161530Z 24010KT 06/00 A3005 RMK A01 T00590004  RH  069%=      5-min Rain = 0
KAOS 161535Z 24008KT 06/01 A3004 RMK A01 T00620008  RH  069%=      5-min Rain = 0
KAOS 161540Z 24009KT 07/01 A3004 RMK A01 T00670009  RH  067%=      5-min Rain = 0
KAOS 161545Z 24009KT 07/01 A3004 RMK A01 T00720012  RH  067%=      5-min Rain = 0
KAOS 161550Z 24011G17KT 08/01 A3004 RMK A01 T00780013  RH  064%=      5-min Rain = 0
KAOS 161555Z 24013KT 08/01 A3004 RMK A01 T00830011  RH  061%=      5-min Rain = 0
KAOS 161600Z 24012KT 09/01 A3003 RMK A01 T00850012  RH  061%=      5-min Rain = 0
KAOS 161605Z 24013KT 09/01 A3003 RMK A01 T00890013  RH  060%=      5-min Rain = 0
KAOS 161610Z 23015KT 09/01 A3003 RMK A01 T00930012  RH  057%=      5-min Rain = 0
KAOS 161615Z 23015KT 10/01 A3003 RMK A01 T00960010  RH  056%=      5-min Rain = 0
KAOS 161620Z 23015KT 10/01 A3003 RMK A01 T00990012  RH  056%=      5-min Rain = 0
KAOS 161625Z 23015KT 10/01 A3002 RMK A01 T01010011  RH  054%=      5-min Rain = 0
KAOS 161630Z 24015KT 10/01 A3002 RMK A01 T01010011  RH  054%=      5-min Rain = 0
KAOS 161635Z 23015KT 10/01 A3002 RMK A01 T01040011  RH  053%=      5-min Rain = 0
KAOS 161640Z 23015KT 11/01 A3002 RMK A01 T01070011  RH  052%=      5-min Rain = 0
KAOS 161645Z 23014KT 11/01 A3002 RMK A01 T01100012  RH  052%=      5-min Rain = 0
KAOS 161650Z 23013KT 11/01 A3002 RMK A01 T01080010  RH  051%=      5-min Rain = 0
KAOS 161655Z 22012KT 11/01 A3002 RMK A01 T01080012  RH  052%=      5-min Rain = 0
KAOS 161700Z 21012KT 11/01 A3002 RMK A01 T01070009  RH  052%=      5-min Rain = 0
KAOS 161705Z 22012KT 11/01 A3002 RMK A01 T01060011  RH  053%=      5-min Rain = 0
KAOS 161710Z 22012KT 10/01 A3001 RMK A01 T01020008  RH  053%=      5-min Rain = 0
KAOS 161715Z 22012KT 10/01 A3001 RMK A01 T01010007  RH  053%=      5-min Rain = 0
KAOS 161720Z 21011KT 10/01 A3001 RMK A01 T01020005  RH  052%=      5-min Rain = 0
KAOS 161725Z 21011KT 10/01 A3001 RMK A01 T01040006  RH  051%=      5-min Rain = 0
KAOS 161730Z 23011KT 11/01 A3001 RMK A01 T01140014  RH  051%=      5-min Rain = 0
KAOS 161735Z 23013KT 12/01 A3001 RMK A01 T01210010  RH  047%=      5-min Rain = 0
KAOS 161740Z 24013KT 13/01 A30 RMK A01 T01280010  RH  045%=      5-min Rain = 0
KAOS 161745Z 23012KT 13/01 A30 RMK A01 T01310010  RH  044%=      5-min Rain = 0
KAOS 161750Z 23011KT 14/01 A30 RMK A01 T01390009  RH  042%=      5-min Rain = 0
KAOS 161755Z 23014KT 14/00 A30 RMK A01 T01400002  RH  039%=      5-min Rain = 0
KAOS 161800Z 22013KT 14/00 A30 RMK A01 T01430003  RH  039%=      5-min Rain = 0
KAOS 161805Z 23014KT 14/00 A30 RMK A01 T01440001  RH  038%=      5-min Rain = 0
KAOS 161810Z 22014KT 14/M01 A2999 RMK A01 T01441005  RH  036%=      5-min Rain = 0
KAOS 161815Z 21014KT 15/M01 A2999 RMK A01 T01481006  RH  035%=      5-min Rain = 0
KAOS 161820Z 22015KT 15/M01 A2999 RMK A01 T01481005  RH  036%=      5-min Rain = 0
KAOS 161825Z 21013KT 15/M00 A2999 RMK A01 T01461004  RH  036%=      5-min Rain = 0
KAOS 161830Z 20013G18KT 14/00 A2999 RMK A01 T014300-0  RH  038%=      5-min Rain = 0
KAOS 161835Z 19014KT 13/01 A2999 RMK A01 T01320011  RH  044%=      5-min Rain = 0
KAOS 161840Z 19014KT 13/01 A2999 RMK A01 T01300011  RH  045%=      5-min Rain = 0
KAOS 161845Z 19013KT 13/01 A2998 RMK A01 T01340011  RH  044%=      5-min Rain = 0
KAOS 161850Z 20013G18KT 14/01 A2998 RMK A01 T01400005  RH  040%=      5-min Rain = 0
KAOS 161855Z 20014G19KT 15/01 A2997 RMK A01 T01450006  RH  039%=      5-min Rain = 0
KAOS 161900Z 22013G18KT 15/00 A2997 RMK A01 T01520001  RH  036%=      5-min Rain = 0
KAOS 161905Z 21012G18KT 16/01 A2997 RMK A01 T01560006  RH  036%=      5-min Rain = 0
KAOS 161910Z 21012KT 16/M00 A2997 RMK A01 T01561002  RH  034%=      5-min Rain = 0
KAOS 161915Z 23011G18KT 15/00 A2996 RMK A01 T015000-0  RH  036%=      5-min Rain = 0
KAOS 161920Z 22014KT 16/00 A2996 RMK A01 T01560002  RH  035%=      5-min Rain = 0
KAOS 161925Z 21012G19KT 16/M00 A2996 RMK A01 T01591001  RH  034%=      5-min Rain = 0
KAOS 161930Z 21014G19KT 16/M01 A2995 RMK A01 T01611005  RH  032%=      5-min Rain = 0
KAOS 161935Z 22014G19KT 16/M01 A2995 RMK A01 T01641005  RH  032%=      5-min Rain = 0
KAOS 161940Z 23012G17KT 16/M00 A2995 RMK A01 T01641004  RH  032%=      5-min Rain = 0
KAOS 161945Z 21015G21KT 17/M01 A2994 RMK A01 T01681006  RH  031%=      5-min Rain = 0
KAOS 161950Z 22014G19KT 17/M01 A2994 RMK A01 T01681008  RH  030%=      5-min Rain = 0
KAOS 161955Z 22015G20KT 17/M01 A2994 RMK A01 T01681011  RH  030%=      5-min Rain = 0
KAOS 162000Z 22012G17KT 17/M01 A2994 RMK A01 T01691008  RH  030%=      5-min Rain = 0
KAOS 162005Z 23014KT 17/M01 A2994 RMK A01 T01701009  RH  030%=      5-min Rain = 0
KAOS 162010Z 21015G20KT 17/M01 A2993 RMK A01 T01691012  RH  029%=      5-min Rain = 0
KAOS 162015Z 21013G18KT 17/M01 A2993 RMK A01 T01731005  RH  030%=      5-min Rain = 0
KAOS 162020Z 21013KT 17/M01 A2993 RMK A01 T01741007  RH  030%=      5-min Rain = 0
KAOS 162025Z 19012G18KT 17/M01 A2993 RMK A01 T01721009  RH  030%=      5-min Rain = 0
KAOS 162030Z 23012KT 17/M01 A2992 RMK A01 T01741009  RH  029%=      5-min Rain = 0
KAOS 162035Z 21013KT 17/M01 A2992 RMK A01 T01731014  RH  028%=      5-min Rain = 0
KAOS 162040Z 22013G20KT 17/M02 A2992 RMK A01 T01741016  RH  028%=      5-min Rain = 0
KAOS 162045Z 23011G16KT 18/M02 A2992 RMK A01 T01751016  RH  027%=      5-min Rain = 0
KAOS 162050Z 23011G17KT 17/M02 A2991 RMK A01 T01731015  RH  028%=      5-min Rain = 0
KAOS 162055Z 21011G16KT 18/M02 A2991 RMK A01 T01751015  RH  028%=      5-min Rain = 0
KAOS 162100Z 20013KT 18/M02 A2991 RMK A01 T01771018  RH  027%=      5-min Rain = 0
KAOS 162105Z 21014KT 17/M02 A2991 RMK A01 T01721023  RH  026%=      5-min Rain = 0
KAOS 162110Z 22012KT 17/M02 A2991 RMK A01 T01731024  RH  026%=      5-min Rain = 0
KAOS 162115Z 23012KT 17/M02 A2991 RMK A01 T01741023  RH  026%=      5-min Rain = 0
KAOS 162120Z 22010G15KT 17/M02 A2991 RMK A01 T01741021  RH  027%=      5-min Rain = 0
KAOS 162125Z 24012KT 18/M02 A2991 RMK A01 T01751017  RH  027%=      5-min Rain = 0
KAOS 162130Z 22011G16KT 18/M02 A299 RMK A01 T01771017  RH  027%=      5-min Rain = 0
KAOS 162135Z 21010G15KT 18/M02 A299 RMK A01 T01791018  RH  026%=      5-min Rain = 0
KAOS 162140Z 21012KT 18/M02 A299 RMK A01 T01781019  RH  026%=      5-min Rain = 0
KAOS 162145Z 20014G19KT 18/M02 A299 RMK A01 T01801018  RH  026%=      5-min Rain = 0
KAOS 162150Z 21013KT 18/M02 A299 RMK A01 T01811021  RH  025%=      5-min Rain = 0
KAOS 162155Z 22013G18KT 18/M02 A299 RMK A01 T01801023  RH  025%=      5-min Rain = 0
KAOS 162200Z 20013KT 18/M02 A299 RMK A01 T01781022  RH  026%=      5-min Rain = 0
KAOS 162205Z 20011G17KT 18/M02 A299 RMK A01 T01811021  RH  025%=      5-min Rain = 0
KAOS 162210Z 22013KT 18/M02 A299 RMK A01 T01831022  RH  025%=      5-min Rain = 0
KAOS 162215Z 22011KT 18/M02 A2989 RMK A01 T01821024  RH  025%=      5-min Rain = 0
KAOS 162220Z 22015G20KT 18/M02 A2989 RMK A01 T01801022  RH  025%=      5-min Rain = 0
KAOS 162225Z 20014KT 18/M02 A2989 RMK A01 T01801019  RH  026%=      5-min Rain = 0
KAOS 162230Z 19015G20KT 18/M02 A2989 RMK A01 T01801022  RH  025%=      5-min Rain = 0
KAOS 162235Z 19013G18KT 18/M02 A2989 RMK A01 T01791022  RH  025%=      5-min Rain = 0
KAOS 162240Z 21012G17KT 18/M02 A2989 RMK A01 T01781022  RH  026%=      5-min Rain = 0
KAOS 162245Z 20012G17KT 18/M02 A2989 RMK A01 T01791024  RH  025%=      5-min Rain = 0
KAOS 162250Z 20014KT 18/M02 A2989 RMK A01 T01801022  RH  025%=      5-min Rain = 0
KAOS 162255Z 19014KT 18/M02 A2989 RMK A01 T01791021  RH  026%=      5-min Rain = 0
KAOS 162300Z 20014KT 18/M02 A2989 RMK A01 T01791023  RH  025%=      5-min Rain = 0
KAOS 162305Z 19014G19KT 18/M02 A2989 RMK A01 T01771021  RH  026%=      5-min Rain = 0
KAOS 162310Z 20015G20KT 18/M02 A2989 RMK A01 T01761023  RH  026%=      5-min Rain = 0
KAOS 162315Z 20016KT 17/M03 A2989 RMK A01 T01731026  RH  026%=      5-min Rain = 0
KAOS 162320Z 20014G19KT 17/M02 A2989 RMK A01 T01711024  RH  027%=      5-min Rain = 0
KAOS 162325Z 19016KT 17/M02 A2989 RMK A01 T01691024  RH  027%=      5-min Rain = 0
KAOS 162330Z 19015KT 17/M02 A2989 RMK A01 T01681020  RH  028%=      5-min Rain = 0
KAOS 162335Z 19015KT 17/M02 A2989 RMK A01 T01671019  RH  028%=      5-min Rain = 0
KAOS 162340Z 19014KT 16/M02 A2989 RMK A01 T01641019  RH  029%=      5-min Rain = 0
KAOS 162345Z 19013KT 16/M02 A2989 RMK A01 T01631018  RH  029%=      5-min Rain = 0
KAOS 162350Z 19014KT 16/M02 A2989 RMK A01 T01611018  RH  030%=      5-min Rain = 0
KAOS 162355Z 19014KT 16/M02 A2989 RMK A01 T01561019  RH  030%=      5-min Rain = 0
KAOS 170000Z 19013KT 15/M02 A2989 RMK A01 T01531019  RH  031%=      5-min Rain = 0
KAOS 170005Z 18012KT 15/M02 A2989 RMK A01 T01491017  RH  032%=      5-min Rain = 0
KAOS 170010Z 18011KT 15/M02 A2989 RMK A01 T01461015  RH  033%=      5-min Rain = 0
KAOS 170015Z 18011KT 14/M01 A2989 RMK A01 T01431013  RH  034%=      5-min Rain = 0
KAOS 170020Z 18010KT 14/M01 A2989 RMK A01 T01411010  RH  036%=      5-min Rain = 0
KAOS 170025Z 18010KT 14/M01 A2989 RMK A01 T01391008  RH  037%=      5-min Rain = 0
KAOS 170030Z 17010KT 14/M01 A2988 RMK A01 T01371007  RH  037%=      5-min Rain = 0
KAOS 170035Z 17009KT 14/M01 A2988 RMK A01 T01351005  RH  038%=      5-min Rain = 0
KAOS 170040Z 17009KT 13/M00 A2989 RMK A01 T01331004  RH  039%=      5-min Rain = 0
KAOS 170045Z 17009KT 13/M00 A2989 RMK A01 T01311003  RH  040%=      5-min Rain = 0
KAOS 170050Z 17008KT 13/M00 A2989 RMK A01 T01281002  RH  041%=      5-min Rain = 0
KAOS 170055Z 17009KT 13/M00 A2989 RMK A01 T01251001  RH  043%=      5-min Rain = 0
KAOS 170100Z 17009KT 12/00 A2989 RMK A01 T01220002  RH  044%=      5-min Rain = 0
KAOS 170105Z 16009KT 12/00 A2988 RMK A01 T01190003  RH  046%=      5-min Rain = 0
KAOS 170110Z 17009KT 12/00 A2988 RMK A01 T01160004  RH  047%=      5-min Rain = 0
KAOS 170115Z 17009KT 11/01 A2988 RMK A01 T01130005  RH  048%=      5-min Rain = 0
KAOS 170120Z 18009KT 11/01 A2988 RMK A01 T01090006  RH  050%=      5-min Rain = 0
KAOS 170125Z 18009KT 10/01 A2988 RMK A01 T01040005  RH  051%=      5-min Rain = 0
KAOS 170130Z 18009KT 10/01 A2989 RMK A01 T01000005  RH  053%=      5-min Rain = 0
KAOS 170135Z 19009KT 10/01 A2988 RMK A01 T00970005  RH  054%=      5-min Rain = 0
KAOS 170140Z 18009KT 09/01 A2988 RMK A01 T00930005  RH  055%=      5-min Rain = 0
KAOS 170145Z 18009KT 09/01 A2988 RMK A01 T00900006  RH  056%=      5-min Rain = 0
KAOS 170150Z 18009KT 09/01 A2988 RMK A01 T00890005  RH  057%=      5-min Rain = 0
KAOS 170155Z 19009KT 09/00 A2988 RMK A01 T00890004  RH  056%=      5-min Rain = 0
KAOS 170200Z 19009KT 09/00 A2988 RMK A01 T00880004  RH  056%=      5-min Rain = 0
KAOS 170205Z 19009KT 09/00 A2988 RMK A01 T00860003  RH  057%=      5-min Rain = 0
KAOS 170210Z 19009KT 09/00 A2988 RMK A01 T00850003  RH  057%=      5-min Rain = 0
KAOS 170215Z 19009KT 08/00 A2988 RMK A01 T00840002  RH  057%=      5-min Rain = 0
KAOS 170220Z 19010KT 08/00 A2988 RMK A01 T00840000  RH  056%=      5-min Rain = 0
KAOS 170225Z 19010KT 08/M00 A2988 RMK A01 T00841001  RH  056%=      5-min Rain = 0
KAOS 170230Z 19010KT 08/M00 A2988 RMK A01 T00831002  RH  055%=      5-min Rain = 0
KAOS 170235Z 18009KT 08/M00 A2988 RMK A01 T00811003  RH  056%=      5-min Rain = 0
KAOS 170240Z 19010KT 08/M00 A2988 RMK A01 T00801004  RH  056%=      5-min Rain = 0
KAOS 170245Z 19010KT 08/M00 A2988 RMK A01 T00791004  RH  056%=      5-min Rain = 0
KAOS 170250Z 19010KT 08/M00 A2988 RMK A01 T00771004  RH  057%=      5-min Rain = 0
KAOS 170255Z 19010KT 07/M00 A2988 RMK A01 T00741003  RH  059%=      5-min Rain = 0
KAOS 170300Z 19009KT 07/M00 A2988 RMK A01 T00701003  RH  060%=      5-min Rain = 0
KAOS 170305Z 19008KT 07/M00 A2988 RMK A01 T00651003  RH  062%=      5-min Rain = 0
KAOS 170310Z 19008KT 06/M00 A2988 RMK A01 T00611004  RH  064%=      5-min Rain = 0
KAOS 170315Z 19008KT 06/M01 A2988 RMK A01 T00561005  RH  065%=      5-min Rain = 0
KAOS 170320Z 19008KT 05/M01 A2988 RMK A01 T00541006  RH  066%=      5-min Rain = 0
KAOS 170325Z 19008KT 05/M01 A2988 RMK A01 T00521006  RH  067%=      5-min Rain = 0
KAOS 170330Z 19009KT 05/M01 A2988 RMK A01 T00511006  RH  067%=      5-min Rain = 0
KAOS 170335Z 20009KT 05/M01 A2988 RMK A01 T00531006  RH  066%=      5-min Rain = 0
KAOS 170340Z 20009KT 06/M01 A2988 RMK A01 T00561005  RH  065%=      5-min Rain = 0
KAOS 170345Z 20009KT 06/M01 A2988 RMK A01 T00561005  RH  065%=      5-min Rain = 0
KAOS 170350Z 20008KT 06/M01 A2988 RMK A01 T00551005  RH  066%=      5-min Rain = 0
KAOS 170355Z 19009KT 05/M01 A2988 RMK A01 T00521006  RH  067%=      5-min Rain = 0
KAOS 170400Z 19008KT 05/M01 A2988 RMK A01 T00481007  RH  069%=      5-min Rain = 0
KAOS 170405Z 19009KT 05/M01 A2988 RMK A01 T00451008  RH  069%=      5-min Rain = 0
KAOS 170410Z 19009KT 05/M01 A2988 RMK A01 T00471006  RH  070%=      5-min Rain = 0
KAOS 170415Z 18009KT 05/M01 A2988 RMK A01 T00491005  RH  069%=      5-min Rain = 0
KAOS 170420Z 18010KT 05/M01 A2988 RMK A01 T00521005  RH  068%=      5-min Rain = 0
KAOS 170425Z 19010KT 05/M00 A2987 RMK A01 T00541004  RH  067%=      5-min Rain = 0
KAOS 170430Z 19010KT 06/M01 A2987 RMK A01 T00551005  RH  066%=      5-min Rain = 0
KAOS 170435Z 19011KT 06/M01 A2987 RMK A01 T00571005  RH  065%=      5-min Rain = 0
KAOS 170440Z 18010KT 06/M01 A2987 RMK A01 T00581005  RH  064%=      5-min Rain = 0
KAOS 170445Z 18011KT 06/M01 A2987 RMK A01 T00581005  RH  065%=      5-min Rain = 0
KAOS 170450Z 18010KT 06/M01 A2987 RMK A01 T00581005  RH  065%=      5-min Rain = 0
KAOS 170455Z 18010KT 06/M00 A2987 RMK A01 T00571004  RH  065%=      5-min Rain = 0
KAOS 170500Z 18010KT 06/M00 A2986 RMK A01 T00571004  RH  065%=      5-min Rain = 0
KAOS 170505Z 18010KT 06/M00 A2986 RMK A01 T00561004  RH  066%=      5-min Rain = 0
KAOS 170510Z 18009KT 05/M00 A2986 RMK A01 T00531004  RH  067%=      5-min Rain = 0
KAOS 170515Z 17009KT 05/M00 A2986 RMK A01 T00521004  RH  068%=      5-min Rain = 0
KAOS 170520Z 17009KT 05/M00 A2985 RMK A01 T00511004  RH  068%=      5-min Rain = 0
KAOS 170525Z 17009KT 05/M00 A2985 RMK A01 T00511003  RH  069%=      5-min Rain = 0
KAOS 170530Z 17009KT 05/M00 A2985 RMK A01 T00501002  RH  070%=      5-min Rain = 0
KAOS 170535Z 18009KT 05/M00 A2985 RMK A01 T00501002  RH  070%=      5-min Rain = 0
KAOS 170540Z 17009KT 05/M00 A2985 RMK A01 T00501002  RH  070%=      5-min Rain = 0
KAOS 170545Z 17010KT 05/M00 A2985 RMK A01 T00501002  RH  070%=      5-min Rain = 0
KAOS 170550Z 16009KT 05/M00 A2986 RMK A01 T00481002  RH  071%=      5-min Rain = 0
KAOS 170555Z 17009KT 05/M00 A2985 RMK A01 T00451002  RH  072%=      5-min Rain = 0

Page generated in 0.0092 seconds.